createdAt,value
2019-06-20T00:01:19.345Z,37.67
2019-06-20T00:03:45.801Z,35.60
2019-06-20T00:06:12.363Z,35.20
2019-06-20T00:08:38.845Z,34.30
2019-06-20T00:11:06.354Z,34.95
2019-06-20T00:13:32.801Z,33.70
2019-06-20T00:15:59.269Z,33.75
2019-06-20T00:18:25.734Z,33.33
2019-06-20T00:20:52.200Z,32.48
2019-06-20T00:23:18.838Z,33.53
2019-06-20T00:25:45.243Z,33.02
2019-06-20T00:28:11.739Z,34.48
2019-06-20T00:30:39.160Z,32.17
2019-06-20T00:33:05.702Z,32.65
2019-06-20T00:35:32.106Z,30.85
2019-06-20T00:37:58.551Z,32.73
2019-06-20T00:40:24.987Z,31.70
2019-06-20T00:42:51.446Z,32.60
2019-06-20T00:45:17.901Z,30.00
2019-06-20T00:47:44.401Z,30.48
2019-06-20T00:50:10.841Z,31.40
2019-06-20T00:52:37.409Z,30.32
2019-06-20T00:55:03.867Z,29.30
2019-06-20T00:57:30.320Z,31.33
2019-06-20T00:59:56.873Z,29.52
2019-06-20T01:02:23.369Z,28.92
2019-06-20T01:04:49.787Z,28.80
2019-06-20T01:07:16.302Z,30.15
2019-06-20T01:09:42.722Z,29.72
2019-06-20T01:12:09.247Z,28.20
2019-06-20T01:14:37.527Z,27.55
2019-06-20T01:17:04.031Z,29.30
2019-06-20T01:19:30.459Z,28.47
2019-06-20T01:21:59.735Z,27.25
2019-06-20T01:24:26.363Z,27.60
2019-06-20T01:26:52.867Z,27.45
2019-06-20T01:29:19.405Z,26.48
2019-06-20T01:31:45.834Z,27.40
2019-06-20T01:34:12.297Z,26.27
2019-06-20T01:36:38.872Z,26.52
2019-06-20T01:39:05.347Z,25.00
2019-06-20T01:41:31.774Z,26.20
2019-06-20T01:43:58.240Z,25.57
2019-06-20T01:46:24.659Z,24.07
2019-06-20T01:48:51.146Z,24.80
2019-06-20T01:51:17.723Z,24.27
2019-06-20T01:53:44.165Z,24.30
2019-06-20T01:56:10.677Z,23.50
2019-06-20T01:58:37.133Z,23.62
2019-06-20T02:01:03.595Z,23.67
2019-06-20T02:03:30.014Z,23.35
2019-06-20T02:05:58.302Z,23.85
2019-06-20T02:08:24.836Z,23.77
2019-06-20T02:10:51.287Z,23.22
2019-06-20T02:13:17.822Z,23.25
2019-06-20T02:15:45.297Z,22.55
2019-06-20T02:18:11.830Z,22.45
2019-06-20T02:20:38.340Z,22.30
2019-06-20T02:23:04.768Z,21.82
2019-06-20T02:25:31.460Z,21.50
2019-06-20T02:27:57.962Z,21.75
2019-06-20T02:30:26.115Z,22.00
2019-06-20T02:32:52.533Z,20.90
2019-06-20T02:35:19.046Z,20.75
2019-06-20T02:37:46.596Z,22.07
2019-06-20T02:40:13.030Z,19.45
2019-06-20T02:42:39.500Z,19.77
2019-06-20T02:45:05.962Z,20.20
2019-06-20T02:47:32.404Z,21.23
2019-06-20T02:49:58.897Z,18.37
2019-06-20T02:52:25.342Z,19.15
2019-06-20T02:54:51.767Z,18.70
2019-06-20T02:57:18.271Z,19.17
2019-06-20T02:59:44.810Z,19.27
2019-06-20T03:02:11.184Z,18.07
2019-06-20T03:04:37.662Z,18.40
2019-06-20T03:07:04.176Z,19.07
2019-06-20T03:09:30.609Z,19.42
2019-06-20T03:11:57.148Z,19.30
2019-06-20T03:14:23.582Z,19.00
2019-06-20T03:16:50.104Z,17.95
2019-06-20T03:19:16.696Z,17.70
2019-06-20T03:21:43.230Z,17.82
2019-06-20T03:24:09.669Z,17.85
2019-06-20T03:26:36.123Z,17.62
2019-06-20T03:29:02.575Z,16.93
2019-06-20T03:31:29.022Z,17.25
2019-06-20T03:33:58.246Z,17.12
2019-06-20T03:36:24.696Z,16.65
2019-06-20T03:38:51.163Z,16.52
2019-06-20T03:41:17.634Z,16.55
2019-06-20T03:43:44.070Z,16.52
2019-06-20T03:46:10.592Z,16.48
2019-06-20T03:48:37.114Z,15.98
2019-06-20T03:51:03.559Z,15.40
2019-06-20T03:53:30.079Z,16.05
2019-06-20T03:55:56.588Z,15.00
2019-06-20T03:58:22.969Z,16.40
2019-06-20T04:00:49.460Z,15.75
2019-06-20T04:03:15.897Z,15.28
2019-06-20T04:05:42.343Z,15.72
2019-06-20T04:08:08.890Z,15.23
2019-06-20T04:10:35.395Z,14.53
2019-06-20T04:13:01.830Z,14.43
2019-06-20T04:15:28.385Z,14.03
2019-06-20T04:17:55.970Z,15.13
2019-06-20T04:20:22.410Z,14.28
2019-06-20T04:22:48.848Z,13.88
2019-06-20T04:25:15.479Z,14.30
2019-06-20T04:27:41.930Z,13.72
2019-06-20T04:30:08.633Z,14.07
2019-06-20T04:32:35.181Z,14.33
2019-06-20T04:35:01.626Z,14.28
2019-06-20T04:37:28.067Z,13.32
2019-06-20T04:39:54.644Z,13.68
2019-06-20T04:42:21.109Z,13.25
2019-06-20T04:44:47.528Z,13.62
2019-06-20T04:47:14.025Z,13.30
2019-06-20T04:49:40.525Z,12.80
2019-06-20T04:52:06.943Z,12.90
2019-06-20T04:54:33.446Z,13.48
2019-06-20T04:56:59.889Z,13.08
2019-06-20T04:59:26.336Z,12.50
2019-06-20T05:01:52.814Z,12.45
2019-06-20T05:04:19.276Z,12.18
2019-06-20T05:06:45.735Z,12.43
2019-06-20T05:09:12.193Z,12.55
2019-06-20T05:11:38.639Z,12.47
2019-06-20T05:14:05.211Z,12.58
2019-06-20T05:16:31.655Z,12.53
2019-06-20T05:18:58.169Z,11.53
2019-06-20T05:21:24.631Z,11.38
2019-06-20T05:23:51.259Z,10.65
2019-06-20T05:26:17.835Z,10.72
2019-06-20T05:28:44.339Z,11.08
2019-06-20T05:31:10.835Z,11.28
2019-06-20T05:33:37.259Z,10.75
2019-06-20T05:36:03.744Z,11.45
2019-06-20T05:38:30.335Z,11.43
2019-06-20T05:40:56.775Z,11.12
2019-06-20T05:43:24.353Z,10.98
2019-06-20T05:45:50.844Z,10.05
2019-06-20T05:48:17.278Z,10.25
2019-06-20T05:50:43.743Z,10.45
2019-06-20T05:53:10.698Z,10.38
2019-06-20T05:55:37.239Z,9.93
2019-06-20T05:58:03.708Z,10.80
2019-06-20T06:00:30.180Z,10.48
2019-06-20T06:02:56.652Z,10.10
2019-06-20T06:05:23.113Z,9.78
2019-06-20T06:07:49.612Z,9.93
2019-06-20T06:10:16.068Z,10.00
2019-06-20T06:12:42.510Z,9.80
2019-06-20T06:15:09.012Z,10.15
2019-06-20T06:17:35.446Z,9.68
2019-06-20T06:20:01.970Z,9.60
2019-06-20T06:22:28.703Z,9.35
2019-06-20T06:24:55.098Z,9.55
2019-06-20T06:27:21.664Z,9.38
2019-06-20T06:29:48.132Z,9.45
2019-06-20T06:32:14.577Z,9.18
2019-06-20T06:34:41.021Z,8.80
2019-06-20T06:37:07.486Z,9.10
2019-06-20T06:39:33.940Z,8.70
2019-06-20T06:42:00.380Z,8.75
2019-06-20T06:44:26.854Z,8.35
2019-06-20T06:46:59.059Z,8.75
2019-06-20T06:49:21.413Z,8.38
2019-06-20T06:51:47.931Z,8.63
2019-06-20T06:54:14.372Z,8.60
2019-06-20T06:56:40.746Z,8.58
2019-06-20T06:59:07.268Z,8.08
2019-06-20T07:01:33.647Z,8.20
2019-06-20T07:04:00.206Z,8.30
2019-06-20T07:06:26.702Z,8.58
2019-06-20T07:08:53.238Z,8.00
2019-06-20T07:11:19.628Z,7.40
2019-06-20T07:13:47.239Z,8.23
2019-06-20T07:16:13.671Z,7.55
2019-06-20T07:18:40.089Z,7.58
2019-06-20T07:21:06.636Z,7.97
2019-06-20T07:23:33.024Z,7.90
2019-06-20T07:25:59.440Z,7.60
2019-06-20T07:28:26.033Z,7.53
2019-06-20T07:30:52.602Z,7.72
2019-06-20T07:33:19.048Z,7.85
2019-06-20T07:35:45.519Z,7.50
2019-06-20T07:38:11.953Z,7.03
2019-06-20T07:40:38.463Z,7.40
2019-06-20T07:43:04.872Z,6.90
2019-06-20T07:45:31.312Z,6.87
2019-06-20T07:47:57.744Z,7.03
2019-06-20T07:50:24.320Z,7.87
2019-06-20T07:53:01.365Z,6.60
2019-06-20T07:55:18.927Z,7.42
2019-06-20T07:57:45.424Z,6.90
2019-06-20T08:00:11.953Z,6.72
2019-06-20T08:02:38.399Z,6.75
2019-06-20T08:05:04.898Z,7.00
2019-06-20T08:07:31.420Z,6.40
2019-06-20T08:09:57.883Z,6.47
2019-06-20T08:12:24.417Z,6.20
2019-06-20T08:14:50.855Z,6.05
2019-06-20T08:17:31.578Z,5.97
2019-06-20T08:19:45.495Z,6.22
2019-06-20T08:22:11.943Z,6.28
2019-06-20T08:24:38.334Z,6.40
2019-06-20T08:27:04.980Z,6.17
2019-06-20T08:29:31.661Z,6.12
2019-06-20T08:31:59.756Z,6.25
2019-06-20T08:34:26.292Z,6.05
2019-06-20T08:36:52.747Z,6.28
2019-06-20T08:39:19.213Z,6.37
2019-06-20T08:41:45.804Z,6.03
2019-06-20T08:44:12.203Z,5.83
2019-06-20T08:46:38.750Z,6.12
2019-06-20T08:49:05.810Z,5.85
2019-06-20T08:51:32.320Z,5.40
2019-06-20T08:54:01.075Z,5.90
2019-06-20T08:56:26.910Z,5.65
2019-06-20T08:58:53.980Z,6.40
2019-06-20T09:01:20.578Z,5.53
2019-06-20T09:03:47.184Z,5.35
2019-06-20T09:06:13.786Z,5.55
2019-06-20T09:08:40.180Z,5.30
2019-06-20T09:11:06.746Z,5.72
2019-06-20T09:13:33.316Z,5.37
2019-06-20T09:16:00.814Z,5.47
2019-06-20T09:18:29.382Z,4.92
2019-06-20T09:20:56.021Z,4.83
2019-06-20T09:23:22.750Z,5.03
2019-06-20T09:25:49.215Z,4.92
2019-06-20T09:28:17.629Z,4.55
2019-06-20T09:30:45.519Z,4.75
2019-06-20T09:33:11.989Z,5.05
2019-06-20T09:35:38.493Z,4.85
2019-06-20T09:38:04.949Z,4.97
2019-06-20T09:40:31.503Z,4.58
2019-06-20T09:42:58.798Z,4.70
2019-06-20T09:45:25.351Z,4.60
2019-06-20T09:47:52.193Z,4.42
2019-06-20T09:50:18.865Z,4.03
2019-06-20T09:52:45.316Z,4.58
2019-06-20T09:55:11.891Z,4.37
2019-06-20T09:57:38.297Z,4.65
2019-06-20T10:00:09.968Z,4.15
2019-06-20T10:02:32.992Z,4.20
2019-06-20T10:04:59.433Z,4.28
2019-06-20T10:07:26.047Z,4.03
2019-06-20T10:09:52.542Z,4.12
2019-06-20T10:12:19.026Z,4.47
2019-06-20T10:14:46.433Z,3.95
2019-06-20T10:17:13.659Z,4.00
2019-06-20T10:19:40.106Z,3.87
2019-06-20T10:22:06.556Z,4.08
2019-06-20T10:24:33.064Z,3.98
2019-06-20T10:26:59.490Z,4.35
2019-06-20T10:29:25.909Z,3.92
2019-06-20T10:31:53.177Z,4.05
2019-06-20T10:34:19.855Z,3.80
2019-06-20T10:36:46.512Z,3.80
2019-06-20T10:39:13.092Z,3.60
2019-06-20T10:41:39.510Z,3.80
2019-06-20T10:44:06.078Z,3.62
2019-06-20T10:46:32.628Z,3.45
2019-06-20T10:49:01.402Z,3.50
2019-06-20T10:51:27.863Z,3.70
2019-06-20T10:53:54.405Z,3.30
2019-06-20T10:56:20.841Z,3.42
2019-06-20T10:58:48.407Z,3.67
2019-06-20T11:01:15.097Z,3.20
2019-06-20T11:03:41.917Z,3.50
2019-06-20T11:06:08.612Z,3.33
2019-06-20T11:08:35.222Z,3.80
2019-06-20T11:11:01.715Z,3.67
2019-06-20T11:13:28.197Z,3.52
2019-06-20T11:15:54.659Z,3.50
2019-06-20T11:18:21.122Z,3.50
2019-06-20T11:20:48.727Z,3.25
2019-06-20T11:23:15.380Z,3.12
2019-06-20T11:25:42.024Z,3.00
2019-06-20T11:28:08.472Z,3.95
2019-06-20T11:30:47.912Z,3.00
2019-06-20T11:33:03.095Z,3.10
2019-06-20T11:35:31.327Z,3.10
2019-06-20T11:37:57.787Z,3.10
2019-06-20T11:40:24.254Z,3.15
2019-06-20T11:42:50.659Z,3.02
2019-06-20T11:45:17.178Z,2.85
2019-06-20T11:47:43.758Z,3.25
2019-06-20T11:50:10.423Z,3.98
2019-06-20T11:52:42.036Z,2.75
2019-06-20T11:55:06.104Z,3.08
2019-06-20T11:57:32.610Z,3.22
2019-06-20T11:59:59.030Z,2.95
2019-06-20T12:02:25.463Z,3.35
2019-06-20T12:04:51.913Z,3.37
2019-06-20T12:07:18.378Z,2.87
2019-06-20T12:09:44.910Z,2.80
2019-06-20T12:12:11.404Z,2.25
2019-06-20T12:14:39.333Z,2.85
2019-06-20T12:17:06.151Z,2.67
2019-06-20T12:19:32.607Z,2.92
2019-06-20T12:21:59.060Z,2.55
2019-06-20T12:24:25.603Z,2.70
2019-06-20T12:26:52.067Z,2.77
2019-06-20T12:29:18.621Z,2.50
2019-06-20T12:31:45.812Z,2.75
2019-06-20T12:34:12.491Z,2.33
2019-06-20T12:36:39.623Z,2.33
2019-06-20T12:39:07.054Z,2.77
2019-06-20T12:41:33.503Z,2.27
2019-06-20T12:43:59.963Z,2.75
2019-06-20T12:46:26.472Z,2.85
2019-06-20T12:48:53.881Z,2.60
2019-06-20T12:51:20.365Z,2.30
2019-06-20T12:53:46.800Z,2.58
2019-06-20T12:56:13.267Z,2.40
2019-06-20T12:58:40.809Z,2.22
2019-06-20T13:01:07.846Z,2.60
2019-06-20T13:03:34.288Z,2.80
2019-06-20T13:06:00.758Z,2.52
2019-06-20T13:08:27.193Z,2.52
2019-06-20T13:10:53.650Z,2.37
2019-06-20T13:13:20.111Z,2.47
2019-06-20T13:15:46.973Z,2.70
2019-06-20T13:18:13.583Z,2.40
2019-06-20T13:20:40.644Z,2.37
2019-06-20T13:23:07.777Z,2.05
2019-06-20T13:25:34.243Z,2.12
2019-06-20T13:28:00.749Z,2.10
2019-06-20T13:30:27.199Z,1.90
2019-06-20T13:32:53.669Z,2.00
2019-06-20T13:35:20.143Z,2.45
2019-06-20T13:37:47.932Z,2.05
2019-06-20T13:40:14.664Z,2.08
2019-06-20T13:42:42.673Z,2.40
2019-06-20T13:45:13.293Z,2.37
2019-06-20T13:47:38.841Z,2.10
2019-06-20T13:50:05.581Z,2.30
2019-06-20T13:52:34.022Z,2.12
2019-06-20T13:55:00.140Z,2.12
2019-06-20T13:57:26.665Z,1.98
2019-06-20T13:59:54.556Z,2.10
2019-06-20T14:02:21.138Z,1.85
2019-06-20T14:04:48.343Z,2.30
2019-06-20T14:07:14.755Z,2.35
2019-06-20T14:09:41.538Z,1.98
2019-06-20T14:12:09.401Z,2.10
2019-06-20T14:14:35.867Z,2.20
2019-06-20T14:17:02.423Z,1.87
2019-06-20T14:19:29.000Z,1.90
2019-06-20T14:21:56.541Z,2.30
2019-06-20T14:24:23.063Z,2.22
2019-06-20T14:26:50.676Z,1.70
2019-06-20T14:29:17.278Z,2.10
2019-06-20T14:31:44.381Z,2.10
2019-06-20T14:34:11.984Z,1.92
2019-06-20T14:36:38.414Z,1.95
2019-06-20T14:39:04.874Z,1.75
2019-06-20T14:41:31.361Z,2.15
2019-06-20T14:43:57.771Z,1.72
2019-06-20T14:46:24.279Z,1.90
2019-06-20T14:48:50.710Z,1.67
2019-06-20T14:51:17.128Z,2.33
2019-06-20T14:53:44.382Z,1.80
2019-06-20T14:56:11.738Z,1.67
2019-06-20T14:58:38.225Z,1.72
2019-06-20T15:01:04.590Z,1.50
2019-06-20T15:03:31.156Z,1.62
2019-06-20T15:05:57.725Z,1.62
2019-06-20T15:08:24.191Z,1.95
2019-06-20T15:10:51.777Z,1.62
2019-06-20T15:13:18.465Z,1.55
2019-06-20T15:15:46.115Z,2.00
2019-06-20T15:18:13.124Z,1.50
2019-06-20T15:20:39.560Z,1.60
2019-06-20T15:23:06.030Z,1.50
2019-06-20T15:25:32.624Z,1.40
2019-06-20T15:27:59.115Z,1.80
2019-06-20T15:30:25.537Z,1.90
2019-06-20T15:33:04.316Z,1.72
2019-06-20T15:35:20.097Z,1.40
2019-06-20T15:37:47.943Z,1.45
2019-06-20T15:40:14.676Z,1.57
2019-06-20T15:42:41.120Z,1.50
2019-06-20T15:45:07.555Z,1.40
2019-06-20T15:47:34.032Z,1.40
2019-06-20T15:50:00.586Z,1.60
2019-06-20T15:52:27.137Z,1.65
2019-06-20T15:54:53.605Z,1.50
2019-06-20T15:57:20.110Z,1.27
2019-06-20T15:59:46.514Z,1.70
2019-06-20T16:02:12.996Z,1.60
2019-06-20T16:04:39.423Z,1.40
2019-06-20T16:07:05.853Z,1.40
2019-06-20T16:09:32.418Z,1.57
2019-06-20T16:11:58.886Z,1.32
2019-06-20T16:14:25.508Z,1.27
2019-06-20T16:16:52.195Z,1.40
2019-06-20T16:19:18.717Z,1.47
2019-06-20T16:21:45.214Z,1.20
2019-06-20T16:24:12.732Z,1.60
2019-06-20T16:26:39.467Z,1.40
2019-06-20T16:29:06.186Z,1.67
2019-06-20T16:31:32.759Z,1.75
2019-06-20T16:33:59.192Z,1.40
2019-06-20T16:36:26.692Z,1.07
2019-06-20T16:38:53.186Z,1.42
2019-06-20T16:41:19.615Z,1.32
2019-06-20T16:43:46.110Z,1.25
2019-06-20T16:46:12.624Z,1.00
2019-06-20T16:48:39.073Z,1.55
2019-06-20T16:51:05.530Z,1.00
2019-06-20T16:53:32.113Z,1.40
2019-06-20T16:55:58.554Z,1.10
2019-06-20T16:58:24.989Z,1.20
2019-06-20T17:00:51.549Z,1.30
2019-06-20T17:03:18.114Z,1.10
2019-06-20T17:05:44.596Z,1.20
2019-06-20T17:08:11.029Z,1.10
2019-06-20T17:10:37.529Z,1.10
2019-06-20T17:13:03.952Z,1.00
2019-06-20T17:15:30.520Z,1.00
2019-06-20T17:17:56.981Z,1.42
2019-06-20T17:20:23.425Z,1.35
2019-06-20T17:22:49.894Z,1.20
2019-06-20T17:25:16.328Z,1.05
2019-06-20T17:27:42.764Z,1.30
2019-06-20T17:30:09.237Z,1.30
2019-06-20T17:32:35.689Z,1.10
2019-06-20T17:35:02.119Z,1.07
2019-06-20T17:37:28.623Z,1.15
2019-06-20T17:39:55.055Z,1.15
2019-06-20T17:42:21.492Z,1.27
2019-06-20T17:44:47.974Z,1.10
2019-06-20T17:47:15.425Z,0.90
2019-06-20T17:49:41.873Z,1.00
2019-06-20T17:52:08.414Z,0.90
2019-06-20T17:54:34.932Z,0.90
2019-06-20T17:57:02.359Z,0.95
2019-06-20T17:59:28.947Z,1.15
2019-06-20T18:01:55.385Z,0.95
2019-06-20T18:04:21.900Z,0.95
2019-06-20T18:06:48.370Z,0.90
2019-06-20T18:09:14.826Z,0.95
2019-06-20T18:11:41.374Z,1.10
2019-06-20T18:14:07.851Z,0.90
2019-06-20T18:16:34.289Z,0.90
2019-06-20T18:19:00.817Z,0.90
2019-06-20T18:21:27.388Z,1.00
2019-06-20T18:23:54.008Z,1.05
2019-06-20T18:26:22.303Z,1.10
2019-06-20T18:28:48.738Z,1.00
2019-06-20T18:31:15.250Z,0.80
2019-06-20T18:33:41.711Z,1.05
2019-06-20T18:36:08.194Z,0.80
2019-06-20T18:38:34.764Z,0.98
2019-06-20T18:41:01.198Z,1.05
2019-06-20T18:43:27.662Z,0.78
2019-06-20T18:45:54.112Z,1.07
2019-06-20T18:48:20.563Z,0.75
2019-06-20T18:50:47.035Z,1.05
2019-06-20T18:53:13.464Z,0.90
2019-06-20T18:55:39.933Z,0.70
2019-06-20T18:58:06.415Z,0.93
2019-06-20T19:00:34.946Z,0.90
2019-06-20T19:03:00.981Z,0.82
2019-06-20T19:05:27.475Z,1.12
2019-06-20T19:07:53.917Z,0.90
2019-06-20T19:10:20.370Z,1.00
2019-06-20T19:12:46.875Z,0.88
2019-06-20T19:15:13.292Z,0.78
2019-06-20T19:17:39.715Z,0.75
2019-06-20T19:20:06.221Z,0.90
2019-06-20T19:22:32.727Z,0.95
2019-06-20T19:24:59.165Z,0.72
2019-06-20T19:27:25.733Z,1.00
2019-06-20T19:29:52.156Z,1.00
2019-06-20T19:32:18.617Z,0.70
2019-06-20T19:34:58.117Z,0.80
2019-06-20T19:37:13.202Z,0.85
2019-06-20T19:39:39.678Z,0.95
2019-06-20T19:42:06.177Z,0.90
2019-06-20T19:44:32.620Z,0.80
2019-06-20T19:46:59.105Z,1.22
2019-06-20T19:49:25.706Z,0.70
2019-06-20T19:51:52.152Z,0.98
2019-06-20T19:54:18.615Z,0.90
2019-06-20T19:56:45.163Z,0.85
2019-06-20T19:59:11.601Z,0.88
2019-06-20T20:01:38.035Z,0.82
2019-06-20T20:04:04.581Z,0.62
2019-06-20T20:06:30.989Z,0.60
2019-06-20T20:08:57.440Z,0.80
2019-06-20T20:11:23.936Z,0.70
2019-06-20T20:13:50.356Z,0.70
2019-06-20T20:16:16.862Z,0.90
2019-06-20T20:18:43.349Z,0.85
2019-06-20T20:21:09.875Z,0.70
2019-06-20T20:23:36.345Z,0.80
2019-06-20T20:26:02.828Z,0.70
2019-06-20T20:28:29.304Z,0.72
2019-06-20T20:30:55.739Z,0.78
2019-06-20T20:33:22.198Z,0.75
2019-06-20T20:35:48.689Z,0.68
2019-06-20T20:38:15.140Z,0.90
2019-06-20T20:40:41.755Z,1.00
2019-06-20T20:43:08.202Z,0.93
2019-06-20T20:45:34.629Z,0.70
2019-06-20T20:48:01.221Z,0.65
2019-06-20T20:50:27.741Z,0.60
2019-06-20T20:52:54.153Z,0.50
2019-06-20T20:55:20.818Z,0.70
2019-06-20T20:57:48.423Z,0.70
2019-06-20T21:00:15.872Z,0.68
2019-06-20T21:02:42.333Z,0.93
2019-06-20T21:05:08.841Z,0.70
2019-06-20T21:07:35.365Z,0.65
2019-06-20T21:10:01.836Z,0.78
2019-06-20T21:12:28.362Z,0.95
2019-06-20T21:14:54.776Z,0.65
2019-06-20T21:17:21.355Z,0.70
2019-06-20T21:19:47.789Z,0.90
2019-06-20T21:22:16.240Z,0.60
2019-06-20T21:24:42.434Z,0.80
2019-06-20T21:27:08.876Z,0.60
2019-06-20T21:29:35.412Z,0.65
2019-06-20T21:32:02.110Z,0.80
2019-06-20T21:34:28.702Z,0.60
2019-06-20T21:36:55.176Z,0.80
2019-06-20T21:39:21.622Z,0.68
2019-06-20T21:41:48.091Z,0.60
2019-06-20T21:44:14.547Z,0.60
2019-06-20T21:46:41.022Z,0.60
2019-06-20T21:49:07.451Z,0.72
2019-06-20T21:51:33.924Z,0.68
2019-06-20T21:54:00.409Z,0.60
2019-06-20T21:56:26.960Z,0.62
2019-06-20T21:58:53.461Z,0.85
2019-06-20T22:01:19.944Z,0.70
2019-06-20T22:03:46.365Z,0.90
2019-06-20T22:06:23.247Z,0.70
2019-06-20T22:08:40.983Z,0.70
2019-06-20T22:11:08.413Z,0.70
2019-06-20T22:13:34.783Z,0.70
2019-06-20T22:16:01.273Z,0.70
2019-06-20T22:18:27.722Z,0.80
2019-06-20T22:20:54.172Z,0.80
2019-06-20T22:23:20.608Z,0.70
2019-06-20T22:25:47.100Z,0.80
2019-06-20T22:28:13.671Z,0.90
2019-06-20T22:30:40.288Z,0.62
2019-06-20T22:33:06.686Z,0.85
2019-06-20T22:35:33.132Z,0.88
2019-06-20T22:37:59.707Z,0.65
2019-06-20T22:40:26.151Z,0.72
2019-06-20T22:42:52.585Z,0.60
2019-06-20T22:45:19.103Z,0.60
2019-06-20T22:47:45.535Z,0.70
2019-06-20T22:50:11.975Z,0.70
2019-06-20T22:52:38.450Z,0.93
2019-06-20T22:55:04.900Z,0.57
2019-06-20T22:57:31.337Z,0.80
2019-06-20T22:59:57.870Z,0.80
2019-06-20T23:02:24.266Z,0.68
2019-06-20T23:04:50.715Z,0.60
2019-06-20T23:07:17.182Z,0.70
2019-06-20T23:09:43.631Z,0.82
2019-06-20T23:12:10.096Z,0.70
2019-06-20T23:14:36.637Z,0.93
2019-06-20T23:17:03.138Z,0.80
2019-06-20T23:19:29.579Z,0.70
2019-06-20T23:21:57.129Z,0.60
2019-06-20T23:24:23.568Z,0.60
2019-06-20T23:26:49.988Z,0.80
2019-06-20T23:29:16.452Z,0.85
2019-06-20T23:31:42.968Z,0.62
2019-06-20T23:34:09.368Z,0.65
2019-06-20T23:36:35.881Z,0.60
2019-06-20T23:39:02.331Z,0.57
2019-06-20T23:41:28.755Z,0.50
2019-06-20T23:43:55.254Z,0.82
2019-06-20T23:46:21.678Z,0.80
2019-06-20T23:48:48.113Z,0.90
2019-06-20T23:51:24.953Z,0.55
2019-06-20T23:53:42.726Z,0.62
2019-06-20T23:56:09.155Z,0.50
2019-06-20T23:58:35.686Z,0.80
